sensor_id;sensor_type;location;lat;lon;timestamp;P1;durP1;ratioP1;P2;durP2;ratioP2
24650;SDS011;12783;48.824;8.662;2023-05-02T00:01:18;7.72;;;5.55;;
24650;SDS011;12783;48.824;8.662;2023-05-02T00:03:44;9.07;;;5.65;;
24650;SDS011;12783;48.824;8.662;2023-05-02T00:06:11;10.25;;;5.60;;
24650;SDS011;12783;48.824;8.662;2023-05-02T00:08:38;9.38;;;5.60;;
24650;SDS011;12783;48.824;8.662;2023-05-02T00:11:05;6.47;;;5.47;;
24650;SDS011;12783;48.824;8.662;2023-05-02T00:13:32;9.65;;;5.35;;
24650;SDS011;12783;48.824;8.662;2023-05-02T00:15:59;6.80;;;5.40;;
24650;SDS011;12783;48.824;8.662;2023-05-02T00:18:27;7.25;;;5.70;;
24650;SDS011;12783;48.824;8.662;2023-05-02T00:20:54;9.35;;;5.57;;
24650;SDS011;12783;48.824;8.662;2023-05-02T00:23:22;7.10;;;5.80;;
24650;SDS011;12783;48.824;8.662;2023-05-02T00:25:49;7.53;;;5.68;;
24650;SDS011;12783;48.824;8.662;2023-05-02T00:28:16;8.40;;;5.90;;
24650;SDS011;12783;48.824;8.662;2023-05-02T00:30:43;7.13;;;5.82;;
24650;SDS011;12783;48.824;8.662;2023-05-02T00:33:11;7.68;;;6.18;;
24650;SDS011;12783;48.824;8.662;2023-05-02T00:35:40;13.10;;;6.10;;
24650;SDS011;12783;48.824;8.662;2023-05-02T00:38:07;9.00;;;6.30;;
24650;SDS011;12783;48.824;8.662;2023-05-02T00:40:44;7.85;;;6.50;;
24650;SDS011;12783;48.824;8.662;2023-05-02T00:43:13;7.07;;;6.07;;
24650;SDS011;12783;48.824;8.662;2023-05-02T00:45:41;7.93;;;6.00;;
24650;SDS011;12783;48.824;8.662;2023-05-02T00:48:10;8.25;;;6.28;;
24650;SDS011;12783;48.824;8.662;2023-05-02T00:50:39;8.95;;;6.55;;
24650;SDS011;12783;48.824;8.662;2023-05-02T00:53:08;8.00;;;5.78;;
24650;SDS011;12783;48.824;8.662;2023-05-02T00:55:36;9.13;;;6.18;;
24650;SDS011;12783;48.824;8.662;2023-05-02T00:58:04;9.85;;;5.88;;
24650;SDS011;12783;48.824;8.662;2023-05-02T01:00:53;7.78;;;6.38;;
24650;SDS011;12783;48.824;8.662;2023-05-02T01:04:00;6.68;;;5.28;;
24650;SDS011;12783;48.824;8.662;2023-05-02T01:07:10;7.72;;;5.30;;
24650;SDS011;12783;48.824;8.662;2023-05-02T01:09:51;8.10;;;5.13;;
24650;SDS011;12783;48.824;8.662;2023-05-02T01:12:38;7.22;;;5.45;;
24650;SDS011;12783;48.824;8.662;2023-05-02T01:15:15;7.55;;;5.50;;
24650;SDS011;12783;48.824;8.662;2023-05-02T01:17:47;7.80;;;5.65;;
24650;SDS011;12783;48.824;8.662;2023-05-02T01:20:18;7.38;;;5.93;;
24650;SDS011;12783;48.824;8.662;2023-05-02T01:22:48;7.82;;;6.22;;
24650;SDS011;12783;48.824;8.662;2023-05-02T01:25:25;7.75;;;5.28;;
24650;SDS011;12783;48.824;8.662;2023-05-02T01:28:20;7.72;;;4.90;;
24650;SDS011;12783;48.824;8.662;2023-05-02T01:30:57;6.38;;;5.00;;
24650;SDS011;12783;48.824;8.662;2023-05-02T01:33:26;5.97;;;5.07;;
24650;SDS011;12783;48.824;8.662;2023-05-02T01:35:55;6.70;;;5.30;;
24650;SDS011;12783;48.824;8.662;2023-05-02T01:38:24;7.30;;;5.68;;
24650;SDS011;12783;48.824;8.662;2023-05-02T01:40:53;7.50;;;5.80;;
24650;SDS011;12783;48.824;8.662;2023-05-02T01:43:22;6.05;;;4.95;;
24650;SDS011;12783;48.824;8.662;2023-05-02T01:45:51;8.40;;;5.28;;
24650;SDS011;12783;48.824;8.662;2023-05-02T01:48:19;7.95;;;5.50;;
24650;SDS011;12783;48.824;8.662;2023-05-02T01:50:47;7.22;;;5.32;;
24650;SDS011;12783;48.824;8.662;2023-05-02T01:53:16;9.68;;;7.35;;
24650;SDS011;12783;48.824;8.662;2023-05-02T01:55:44;7.85;;;6.30;;
24650;SDS011;12783;48.824;8.662;2023-05-02T01:58:12;6.32;;;5.20;;
24650;SDS011;12783;48.824;8.662;2023-05-02T02:00:40;9.73;;;6.35;;
24650;SDS011;12783;48.824;8.662;2023-05-02T02:03:10;9.38;;;7.03;;
24650;SDS011;12783;48.824;8.662;2023-05-02T02:05:40;7.93;;;5.80;;
24650;SDS011;12783;48.824;8.662;2023-05-02T02:08:08;10.32;;;6.05;;
24650;SDS011;12783;48.824;8.662;2023-05-02T02:10:40;12.35;;;6.18;;
24650;SDS011;12783;48.824;8.662;2023-05-02T02:13:16;6.95;;;5.40;;
24650;SDS011;12783;48.824;8.662;2023-05-02T02:15:48;8.35;;;5.97;;
24650;SDS011;12783;48.824;8.662;2023-05-02T02:18:20;10.52;;;5.60;;
24650;SDS011;12783;48.824;8.662;2023-05-02T02:20:50;10.90;;;6.10;;
24650;SDS011;12783;48.824;8.662;2023-05-02T02:23:18;8.35;;;5.95;;
24650;SDS011;12783;48.824;8.662;2023-05-02T02:25:49;7.95;;;5.60;;
24650;SDS011;12783;48.824;8.662;2023-05-02T02:28:19;8.18;;;6.10;;
24650;SDS011;12783;48.824;8.662;2023-05-02T02:30:46;7.32;;;6.03;;
24650;SDS011;12783;48.824;8.662;2023-05-02T02:33:13;10.98;;;5.82;;
24650;SDS011;12783;48.824;8.662;2023-05-02T02:35:41;7.00;;;5.75;;
24650;SDS011;12783;48.824;8.662;2023-05-02T02:38:15;8.38;;;5.97;;
24650;SDS011;12783;48.824;8.662;2023-05-02T02:41:10;6.65;;;5.65;;
24650;SDS011;12783;48.824;8.662;2023-05-02T02:43:59;9.40;;;6.28;;
24650;SDS011;12783;48.824;8.662;2023-05-02T02:46:49;12.55;;;6.47;;
24650;SDS011;12783;48.824;8.662;2023-05-02T02:54:59;9.40;;;6.97;;
24650;SDS011;12783;48.824;8.662;2023-05-02T03:01:32;9.55;;;7.32;;
24650;SDS011;12783;48.824;8.662;2023-05-02T03:04:01;9.38;;;7.05;;
24650;SDS011;12783;48.824;8.662;2023-05-02T03:06:32;8.90;;;7.35;;
24650;SDS011;12783;48.824;8.662;2023-05-02T03:08:59;11.10;;;6.93;;
24650;SDS011;12783;48.824;8.662;2023-05-02T03:11:26;13.65;;;7.07;;
24650;SDS011;12783;48.824;8.662;2023-05-02T03:13:54;8.57;;;6.80;;
24650;SDS011;12783;48.824;8.662;2023-05-02T03:16:40;12.20;;;7.03;;
24650;SDS011;12783;48.824;8.662;2023-05-02T03:19:07;9.10;;;6.80;;
24650;SDS011;12783;48.824;8.662;2023-05-02T03:21:34;10.13;;;7.03;;
24650;SDS011;12783;48.824;8.662;2023-05-02T03:24:02;11.10;;;7.10;;
24650;SDS011;12783;48.824;8.662;2023-05-02T03:26:29;10.70;;;7.45;;
24650;SDS011;12783;48.824;8.662;2023-05-02T03:28:56;9.65;;;7.07;;
24650;SDS011;12783;48.824;8.662;2023-05-02T03:31:23;9.68;;;7.20;;
24650;SDS011;12783;48.824;8.662;2023-05-02T03:33:52;9.43;;;7.25;;
24650;SDS011;12783;48.824;8.662;2023-05-02T03:36:19;9.95;;;7.70;;
24650;SDS011;12783;48.824;8.662;2023-05-02T03:38:46;16.45;;;7.97;;
24650;SDS011;12783;48.824;8.662;2023-05-02T03:41:13;10.90;;;6.85;;
24650;SDS011;12783;48.824;8.662;2023-05-02T03:43:40;10.13;;;7.78;;
24650;SDS011;12783;48.824;8.662;2023-05-02T03:46:07;8.45;;;6.93;;
24650;SDS011;12783;48.824;8.662;2023-05-02T03:48:37;10.25;;;7.57;;
24650;SDS011;12783;48.824;8.662;2023-05-02T03:51:04;10.05;;;7.63;;
24650;SDS011;12783;48.824;8.662;2023-05-02T03:53:34;9.38;;;7.45;;
24650;SDS011;12783;48.824;8.662;2023-05-02T03:56:01;12.25;;;8.05;;
24650;SDS011;12783;48.824;8.662;2023-05-02T03:58:28;9.50;;;7.40;;
24650;SDS011;12783;48.824;8.662;2023-05-02T04:00:55;12.35;;;6.95;;
24650;SDS011;12783;48.824;8.662;2023-05-02T04:03:22;10.77;;;6.95;;
24650;SDS011;12783;48.824;8.662;2023-05-02T04:05:49;8.75;;;6.13;;
24650;SDS011;12783;48.824;8.662;2023-05-02T04:08:17;9.13;;;7.07;;
24650;SDS011;12783;48.824;8.662;2023-05-02T04:10:44;11.57;;;8.23;;
24650;SDS011;12783;48.824;8.662;2023-05-02T04:13:11;8.70;;;6.85;;
24650;SDS011;12783;48.824;8.662;2023-05-02T04:15:38;9.00;;;7.32;;
24650;SDS011;12783;48.824;8.662;2023-05-02T04:18:04;8.27;;;6.63;;
24650;SDS011;12783;48.824;8.662;2023-05-02T04:20:32;9.38;;;7.22;;
24650;SDS011;12783;48.824;8.662;2023-05-02T04:22:59;10.65;;;7.10;;
24650;SDS011;12783;48.824;8.662;2023-05-02T04:25:26;9.80;;;6.20;;
24650;SDS011;12783;48.824;8.662;2023-05-02T04:27:53;11.82;;;6.95;;
24650;SDS011;12783;48.824;8.662;2023-05-02T04:30:20;9.73;;;7.13;;
24650;SDS011;12783;48.824;8.662;2023-05-02T04:32:47;9.98;;;6.90;;
24650;SDS011;12783;48.824;8.662;2023-05-02T04:35:14;8.55;;;6.65;;
24650;SDS011;12783;48.824;8.662;2023-05-02T04:37:42;9.63;;;6.90;;
24650;SDS011;12783;48.824;8.662;2023-05-02T04:40:09;7.97;;;6.28;;
24650;SDS011;12783;48.824;8.662;2023-05-02T04:42:36;8.27;;;6.85;;
24650;SDS011;12783;48.824;8.662;2023-05-02T04:45:03;8.55;;;6.20;;
24650;SDS011;12783;48.824;8.662;2023-05-02T04:47:31;11.68;;;8.82;;
24650;SDS011;12783;48.824;8.662;2023-05-02T04:49:58;13.80;;;9.30;;
24650;SDS011;12783;48.824;8.662;2023-05-02T04:52:25;14.52;;;9.25;;
24650;SDS011;12783;48.824;8.662;2023-05-02T04:54:52;13.18;;;9.45;;
24650;SDS011;12783;48.824;8.662;2023-05-02T04:57:19;12.57;;;8.65;;
24650;SDS011;12783;48.824;8.662;2023-05-02T04:59:48;12.40;;;9.32;;
24650;SDS011;12783;48.824;8.662;2023-05-02T05:02:15;12.75;;;8.57;;
24650;SDS011;12783;48.824;8.662;2023-05-02T05:04:42;11.60;;;8.60;;
24650;SDS011;12783;48.824;8.662;2023-05-02T05:07:10;14.82;;;10.93;;
24650;SDS011;12783;48.824;8.662;2023-05-02T05:09:37;15.77;;;10.00;;
24650;SDS011;12783;48.824;8.662;2023-05-02T05:12:04;12.57;;;9.02;;
24650;SDS011;12783;48.824;8.662;2023-05-02T05:14:31;12.90;;;9.57;;
24650;SDS011;12783;48.824;8.662;2023-05-02T05:16:59;13.30;;;10.43;;
24650;SDS011;12783;48.824;8.662;2023-05-02T05:19:26;17.35;;;11.95;;
24650;SDS011;12783;48.824;8.662;2023-05-02T05:21:53;15.27;;;11.13;;
24650;SDS011;12783;48.824;8.662;2023-05-02T05:24:19;17.92;;;12.10;;
24650;SDS011;12783;48.824;8.662;2023-05-02T05:26:46;18.40;;;13.23;;
24650;SDS011;12783;48.824;8.662;2023-05-02T05:29:13;17.27;;;13.00;;
24650;SDS011;12783;48.824;8.662;2023-05-02T05:31:40;21.45;;;13.77;;
24650;SDS011;12783;48.824;8.662;2023-05-02T05:34:07;19.55;;;13.68;;
24650;SDS011;12783;48.824;8.662;2023-05-02T05:36:34;19.40;;;13.65;;
24650;SDS011;12783;48.824;8.662;2023-05-02T05:39:02;19.35;;;13.23;;
24650;SDS011;12783;48.824;8.662;2023-05-02T05:41:29;19.08;;;13.40;;
24650;SDS011;12783;48.824;8.662;2023-05-02T05:43:56;19.42;;;14.27;;
24650;SDS011;12783;48.824;8.662;2023-05-02T05:46:23;19.35;;;13.77;;
24650;SDS011;12783;48.824;8.662;2023-05-02T05:48:50;19.85;;;13.95;;
24650;SDS011;12783;48.824;8.662;2023-05-02T05:51:17;19.48;;;13.95;;
24650;SDS011;12783;48.824;8.662;2023-05-02T05:53:44;20.77;;;14.15;;
24650;SDS011;12783;48.824;8.662;2023-05-02T05:56:11;20.23;;;13.82;;
24650;SDS011;12783;48.824;8.662;2023-05-02T05:58:38;19.02;;;14.43;;
24650;SDS011;12783;48.824;8.662;2023-05-02T06:01:06;27.50;;;15.43;;
24650;SDS011;12783;48.824;8.662;2023-05-02T06:03:33;22.42;;;14.55;;
24650;SDS011;12783;48.824;8.662;2023-05-02T06:06:00;22.10;;;15.52;;
24650;SDS011;12783;48.824;8.662;2023-05-02T06:08:27;23.77;;;16.27;;
24650;SDS011;12783;48.824;8.662;2023-05-02T06:10:54;23.30;;;15.68;;
24650;SDS011;12783;48.824;8.662;2023-05-02T06:13:21;23.65;;;16.42;;
24650;SDS011;12783;48.824;8.662;2023-05-02T06:15:48;24.10;;;15.50;;
24650;SDS011;12783;48.824;8.662;2023-05-02T06:18:14;22.73;;;15.85;;
24650;SDS011;12783;48.824;8.662;2023-05-02T06:20:41;22.17;;;15.40;;
24650;SDS011;12783;48.824;8.662;2023-05-02T06:23:08;25.50;;;16.65;;
24650;SDS011;12783;48.824;8.662;2023-05-02T06:25:36;25.30;;;17.25;;
24650;SDS011;12783;48.824;8.662;2023-05-02T06:28:03;23.60;;;16.60;;
24650;SDS011;12783;48.824;8.662;2023-05-02T06:30:30;22.65;;;16.27;;
24650;SDS011;12783;48.824;8.662;2023-05-02T06:32:57;28.35;;;18.40;;
24650;SDS011;12783;48.824;8.662;2023-05-02T06:35:24;24.63;;;17.10;;
24650;SDS011;12783;48.824;8.662;2023-05-02T06:37:51;30.02;;;17.80;;
24650;SDS011;12783;48.824;8.662;2023-05-02T06:40:18;26.42;;;18.80;;
24650;SDS011;12783;48.824;8.662;2023-05-02T06:42:45;28.35;;;18.70;;
24650;SDS011;12783;48.824;8.662;2023-05-02T06:45:13;31.13;;;21.55;;
24650;SDS011;12783;48.824;8.662;2023-05-02T06:47:40;39.60;;;27.63;;
24650;SDS011;12783;48.824;8.662;2023-05-02T06:50:07;32.03;;;20.60;;
24650;SDS011;12783;48.824;8.662;2023-05-02T06:52:34;32.95;;;21.15;;
24650;SDS011;12783;48.824;8.662;2023-05-02T06:55:01;32.05;;;21.33;;
24650;SDS011;12783;48.824;8.662;2023-05-02T06:57:28;31.67;;;22.02;;
24650;SDS011;12783;48.824;8.662;2023-05-02T06:59:55;33.65;;;22.45;;
24650;SDS011;12783;48.824;8.662;2023-05-02T07:02:22;31.83;;;22.15;;
24650;SDS011;12783;48.824;8.662;2023-05-02T07:04:49;36.15;;;21.90;;
24650;SDS011;12783;48.824;8.662;2023-05-02T07:07:15;39.13;;;22.55;;
24650;SDS011;12783;48.824;8.662;2023-05-02T07:09:44;34.13;;;22.98;;
24650;SDS011;12783;48.824;8.662;2023-05-02T07:12:11;37.42;;;23.90;;
24650;SDS011;12783;48.824;8.662;2023-05-02T07:14:38;37.92;;;24.77;;
24650;SDS011;12783;48.824;8.662;2023-05-02T07:17:04;51.60;;;29.67;;
24650;SDS011;12783;48.824;8.662;2023-05-02T07:19:31;45.67;;;27.88;;
24650;SDS011;12783;48.824;8.662;2023-05-02T07:21:58;43.10;;;27.02;;
24650;SDS011;12783;48.824;8.662;2023-05-02T07:24:25;47.15;;;28.08;;
24650;SDS011;12783;48.824;8.662;2023-05-02T07:26:52;50.60;;;30.45;;
24650;SDS011;12783;48.824;8.662;2023-05-02T07:29:19;49.65;;;29.95;;
24650;SDS011;12783;48.824;8.662;2023-05-02T07:31:46;53.00;;;31.65;;
24650;SDS011;12783;48.824;8.662;2023-05-02T07:34:13;50.85;;;31.35;;
24650;SDS011;12783;48.824;8.662;2023-05-02T07:36:39;61.45;;;36.17;;
24650;SDS011;12783;48.824;8.662;2023-05-02T07:39:06;69.88;;;40.80;;
24650;SDS011;12783;48.824;8.662;2023-05-02T07:41:33;49.63;;;31.50;;
24650;SDS011;12783;48.824;8.662;2023-05-02T07:44:00;57.88;;;32.40;;
24650;SDS011;12783;48.824;8.662;2023-05-02T07:46:27;57.22;;;32.33;;
24650;SDS011;12783;48.824;8.662;2023-05-02T07:48:54;54.90;;;33.33;;
24650;SDS011;12783;48.824;8.662;2023-05-02T07:51:21;63.10;;;35.08;;
24650;SDS011;12783;48.824;8.662;2023-05-02T07:53:51;59.08;;;34.35;;
24650;SDS011;12783;48.824;8.662;2023-05-02T07:56:19;61.25;;;34.72;;
24650;SDS011;12783;48.824;8.662;2023-05-02T07:58:46;55.83;;;33.20;;
24650;SDS011;12783;48.824;8.662;2023-05-02T08:01:13;57.22;;;33.67;;
24650;SDS011;12783;48.824;8.662;2023-05-02T08:03:40;64.55;;;35.75;;
24650;SDS011;12783;48.824;8.662;2023-05-02T08:06:07;62.92;;;35.08;;
24650;SDS011;12783;48.824;8.662;2023-05-02T08:08:35;66.13;;;35.92;;
24650;SDS011;12783;48.824;8.662;2023-05-02T08:11:03;56.40;;;32.33;;
24650;SDS011;12783;48.824;8.662;2023-05-02T08:13:29;63.30;;;35.67;;
24650;SDS011;12783;48.824;8.662;2023-05-02T08:15:56;65.43;;;36.95;;
24650;SDS011;12783;48.824;8.662;2023-05-02T08:18:24;63.03;;;36.53;;
24650;SDS011;12783;48.824;8.662;2023-05-02T08:20:51;64.35;;;36.85;;
24650;SDS011;12783;48.824;8.662;2023-05-02T08:23:21;56.17;;;33.00;;
24650;SDS011;12783;48.824;8.662;2023-05-02T08:25:48;52.80;;;31.90;;
24650;SDS011;12783;48.824;8.662;2023-05-02T08:28:15;63.05;;;37.45;;
24650;SDS011;12783;48.824;8.662;2023-05-02T08:30:41;61.75;;;34.95;;
24650;SDS011;12783;48.824;8.662;2023-05-02T08:33:10;65.32;;;36.75;;
24650;SDS011;12783;48.824;8.662;2023-05-02T08:35:37;52.85;;;34.72;;
24650;SDS011;12783;48.824;8.662;2023-05-02T08:38:04;52.63;;;31.88;;
24650;SDS011;12783;48.824;8.662;2023-05-02T08:40:34;59.03;;;34.58;;
24650;SDS011;12783;48.824;8.662;2023-05-02T08:43:08;55.20;;;34.08;;
24650;SDS011;12783;48.824;8.662;2023-05-02T08:45:41;67.00;;;34.22;;
24650;SDS011;12783;48.824;8.662;2023-05-02T08:48:10;55.92;;;34.10;;
24650;SDS011;12783;48.824;8.662;2023-05-02T08:50:40;54.42;;;34.42;;
24650;SDS011;12783;48.824;8.662;2023-05-02T08:53:10;56.70;;;34.03;;
24650;SDS011;12783;48.824;8.662;2023-05-02T08:55:40;54.45;;;33.05;;
24650;SDS011;12783;48.824;8.662;2023-05-02T08:58:08;59.13;;;34.25;;
24650;SDS011;12783;48.824;8.662;2023-05-02T09:00:40;54.47;;;33.20;;
24650;SDS011;12783;48.824;8.662;2023-05-02T09:03:42;62.08;;;34.05;;
24650;SDS011;12783;48.824;8.662;2023-05-02T09:06:10;51.45;;;32.13;;
24650;SDS011;12783;48.824;8.662;2023-05-02T09:08:38;49.80;;;32.78;;
24650;SDS011;12783;48.824;8.662;2023-05-02T09:11:08;53.88;;;32.95;;
24650;SDS011;12783;48.824;8.662;2023-05-02T09:13:38;48.63;;;31.35;;
24650;SDS011;12783;48.824;8.662;2023-05-02T09:16:08;52.38;;;32.88;;
24650;SDS011;12783;48.824;8.662;2023-05-02T09:18:36;55.67;;;33.25;;
24650;SDS011;12783;48.824;8.662;2023-05-02T09:21:09;49.13;;;30.98;;
24650;SDS011;12783;48.824;8.662;2023-05-02T09:23:46;44.10;;;28.95;;
24650;SDS011;12783;48.824;8.662;2023-05-02T09:26:55;49.60;;;31.00;;
24650;SDS011;12783;48.824;8.662;2023-05-02T09:30:21;46.03;;;31.08;;
24650;SDS011;12783;48.824;8.662;2023-05-02T09:32:51;50.28;;;30.30;;
24650;SDS011;12783;48.824;8.662;2023-05-02T09:35:21;47.72;;;29.58;;
24650;SDS011;12783;48.824;8.662;2023-05-02T09:37:58;45.47;;;27.40;;
24650;SDS011;12783;48.824;8.662;2023-05-02T09:40:25;37.53;;;25.88;;
24650;SDS011;12783;48.824;8.662;2023-05-02T09:42:53;36.28;;;25.20;;
24650;SDS011;12783;48.824;8.662;2023-05-02T09:45:22;41.33;;;27.23;;
24650;SDS011;12783;48.824;8.662;2023-05-02T09:47:51;43.28;;;28.42;;
24650;SDS011;12783;48.824;8.662;2023-05-02T09:50:35;44.83;;;28.05;;
24650;SDS011;12783;48.824;8.662;2023-05-02T09:53:05;40.40;;;26.23;;
24650;SDS011;12783;48.824;8.662;2023-05-02T09:55:35;41.55;;;27.27;;
24650;SDS011;12783;48.824;8.662;2023-05-02T09:58:02;47.33;;;28.08;;
24650;SDS011;12783;48.824;8.662;2023-05-02T10:00:42;39.45;;;27.33;;
24650;SDS011;12783;48.824;8.662;2023-05-02T10:03:10;39.08;;;25.73;;
24650;SDS011;12783;48.824;8.662;2023-05-02T10:05:43;41.90;;;27.60;;
24650;SDS011;12783;48.824;8.662;2023-05-02T10:08:12;37.15;;;25.45;;
24650;SDS011;12783;48.824;8.662;2023-05-02T10:10:40;41.80;;;26.60;;
24650;SDS011;12783;48.824;8.662;2023-05-02T10:13:12;36.90;;;24.65;;
24650;SDS011;12783;48.824;8.662;2023-05-02T10:15:42;38.13;;;23.80;;
24650;SDS011;12783;48.824;8.662;2023-05-02T10:18:14;35.72;;;24.48;;
24650;SDS011;12783;48.824;8.662;2023-05-02T10:20:55;35.40;;;24.50;;
24650;SDS011;12783;48.824;8.662;2023-05-02T10:23:29;32.72;;;24.08;;
24650;SDS011;12783;48.824;8.662;2023-05-02T10:25:56;34.60;;;24.30;;
24650;SDS011;12783;48.824;8.662;2023-05-02T10:28:26;39.30;;;23.75;;
24650;SDS011;12783;48.824;8.662;2023-05-02T10:30:53;33.60;;;23.02;;
24650;SDS011;12783;48.824;8.662;2023-05-02T10:33:21;34.67;;;22.20;;
24650;SDS011;12783;48.824;8.662;2023-05-02T10:35:48;33.08;;;22.67;;
24650;SDS011;12783;48.824;8.662;2023-05-02T10:38:19;34.30;;;22.95;;
24650;SDS011;12783;48.824;8.662;2023-05-02T10:40:54;36.20;;;24.10;;
24650;SDS011;12783;48.824;8.662;2023-05-02T10:43:27;36.53;;;25.65;;
24650;SDS011;12783;48.824;8.662;2023-05-02T10:45:59;41.58;;;26.88;;
24650;SDS011;12783;48.824;8.662;2023-05-02T10:48:28;36.00;;;25.80;;
24650;SDS011;12783;48.824;8.662;2023-05-02T10:50:57;40.10;;;26.17;;
24650;SDS011;12783;48.824;8.662;2023-05-02T10:56:18;44.90;;;27.17;;
24650;SDS011;12783;48.824;8.662;2023-05-02T10:58:48;38.03;;;25.48;;
24650;SDS011;12783;48.824;8.662;2023-05-02T11:03:57;34.90;;;24.45;;
24650;SDS011;12783;48.824;8.662;2023-05-02T11:06:32;33.28;;;23.40;;
24650;SDS011;12783;48.824;8.662;2023-05-02T11:11:49;34.90;;;23.17;;
24650;SDS011;12783;48.824;8.662;2023-05-02T11:14:41;33.35;;;21.73;;
24650;SDS011;12783;48.824;8.662;2023-05-02T11:17:09;30.08;;;21.83;;
24650;SDS011;12783;48.824;8.662;2023-05-02T11:24:49;33.28;;;22.85;;
24650;SDS011;12783;48.824;8.662;2023-05-02T11:29:56;45.88;;;28.42;;
24650;SDS011;12783;48.824;8.662;2023-05-02T11:35:15;56.95;;;34.22;;
24650;SDS011;12783;48.824;8.662;2023-05-02T11:37:58;69.78;;;37.70;;
24650;SDS011;12783;48.824;8.662;2023-05-02T11:40:30;78.22;;;40.65;;
24650;SDS011;12783;48.824;8.662;2023-05-02T11:42:58;80.55;;;41.33;;
24650;SDS011;12783;48.824;8.662;2023-05-02T11:45:33;83.72;;;42.60;;
24650;SDS011;12783;48.824;8.662;2023-05-02T11:48:10;81.63;;;41.88;;
24650;SDS011;12783;48.824;8.662;2023-05-02T11:50:43;73.85;;;39.53;;
24650;SDS011;12783;48.824;8.662;2023-05-02T11:53:21;72.70;;;40.72;;
24650;SDS011;12783;48.824;8.662;2023-05-02T11:55:52;79.32;;;39.72;;
24650;SDS011;12783;48.824;8.662;2023-05-02T11:58:21;68.53;;;39.55;;
24650;SDS011;12783;48.824;8.662;2023-05-02T12:00:58;74.05;;;40.80;;
24650;SDS011;12783;48.824;8.662;2023-05-02T12:03:39;64.85;;;39.15;;
24650;SDS011;12783;48.824;8.662;2023-05-02T12:06:10;66.72;;;36.83;;
24650;SDS011;12783;48.824;8.662;2023-05-02T12:08:41;60.47;;;36.42;;
24650;SDS011;12783;48.824;8.662;2023-05-02T12:11:12;60.90;;;37.25;;
24650;SDS011;12783;48.824;8.662;2023-05-02T12:13:45;60.00;;;35.03;;
24650;SDS011;12783;48.824;8.662;2023-05-02T12:16:14;53.38;;;33.38;;
24650;SDS011;12783;48.824;8.662;2023-05-02T12:18:42;59.42;;;34.90;;
24650;SDS011;12783;48.824;8.662;2023-05-02T12:21:10;55.45;;;33.15;;
24650;SDS011;12783;48.824;8.662;2023-05-02T12:23:38;50.78;;;32.53;;
24650;SDS011;12783;48.824;8.662;2023-05-02T12:26:18;47.00;;;29.00;;
24650;SDS011;12783;48.824;8.662;2023-05-02T12:28:48;46.70;;;28.85;;
24650;SDS011;12783;48.824;8.662;2023-05-02T12:31:23;48.33;;;29.98;;
24650;SDS011;12783;48.824;8.662;2023-05-02T12:33:52;47.10;;;28.30;;
24650;SDS011;12783;48.824;8.662;2023-05-02T12:36:23;40.75;;;25.70;;
24650;SDS011;12783;48.824;8.662;2023-05-02T12:38:50;42.08;;;25.50;;
24650;SDS011;12783;48.824;8.662;2023-05-02T12:41:30;36.13;;;22.75;;
24650;SDS011;12783;48.824;8.662;2023-05-02T12:43:58;32.92;;;21.77;;
24650;SDS011;12783;48.824;8.662;2023-05-02T12:46:26;39.28;;;22.88;;
24650;SDS011;12783;48.824;8.662;2023-05-02T12:49:04;38.47;;;22.80;;
24650;SDS011;12783;48.824;8.662;2023-05-02T12:51:37;30.42;;;20.27;;
24650;SDS011;12783;48.824;8.662;2023-05-02T12:54:06;40.38;;;24.13;;
24650;SDS011;12783;48.824;8.662;2023-05-02T12:56:39;36.20;;;22.70;;
24650;SDS011;12783;48.824;8.662;2023-05-02T12:59:09;35.70;;;22.02;;
24650;SDS011;12783;48.824;8.662;2023-05-02T13:01:54;35.40;;;21.73;;
24650;SDS011;12783;48.824;8.662;2023-05-02T13:04:21;32.78;;;20.35;;
24650;SDS011;12783;48.824;8.662;2023-05-02T13:06:59;30.77;;;20.02;;
24650;SDS011;12783;48.824;8.662;2023-05-02T13:09:26;32.95;;;18.75;;
24650;SDS011;12783;48.824;8.662;2023-05-02T13:11:53;30.20;;;19.13;;
24650;SDS011;12783;48.824;8.662;2023-05-02T13:14:20;30.65;;;19.60;;
24650;SDS011;12783;48.824;8.662;2023-05-02T13:16:48;35.05;;;20.08;;
24650;SDS011;12783;48.824;8.662;2023-05-02T13:19:15;34.22;;;20.23;;
24650;SDS011;12783;48.824;8.662;2023-05-02T13:21:42;30.08;;;17.83;;
24650;SDS011;12783;48.824;8.662;2023-05-02T13:24:09;30.30;;;17.70;;
24650;SDS011;12783;48.824;8.662;2023-05-02T13:26:36;29.67;;;17.17;;
24650;SDS011;12783;48.824;8.662;2023-05-02T13:29:17;28.13;;;17.48;;
24650;SDS011;12783;48.824;8.662;2023-05-02T13:31:44;31.17;;;16.75;;
24650;SDS011;12783;48.824;8.662;2023-05-02T13:34:11;22.77;;;14.23;;
24650;SDS011;12783;48.824;8.662;2023-05-02T13:36:38;21.17;;;12.25;;
24650;SDS011;12783;48.824;8.662;2023-05-02T13:39:11;21.73;;;13.35;;
24650;SDS011;12783;48.824;8.662;2023-05-02T13:41:39;26.00;;;15.15;;
24650;SDS011;12783;48.824;8.662;2023-05-02T13:44:07;26.38;;;15.85;;
24650;SDS011;12783;48.824;8.662;2023-05-02T13:46:34;25.98;;;15.43;;
24650;SDS011;12783;48.824;8.662;2023-05-02T13:49:03;25.67;;;14.70;;
24650;SDS011;12783;48.824;8.662;2023-05-02T13:51:33;23.52;;;12.95;;
24650;SDS011;12783;48.824;8.662;2023-05-02T13:54:00;22.10;;;14.27;;
24650;SDS011;12783;48.824;8.662;2023-05-02T13:56:27;22.85;;;13.35;;
24650;SDS011;12783;48.824;8.662;2023-05-02T13:58:54;24.13;;;12.93;;
24650;SDS011;12783;48.824;8.662;2023-05-02T14:01:21;19.67;;;12.30;;
24650;SDS011;12783;48.824;8.662;2023-05-02T14:03:48;20.45;;;12.77;;
24650;SDS011;12783;48.824;8.662;2023-05-02T14:06:15;18.95;;;10.82;;
24650;SDS011;12783;48.824;8.662;2023-05-02T14:08:42;20.40;;;11.68;;
24650;SDS011;12783;48.824;8.662;2023-05-02T14:11:10;17.55;;;10.75;;
24650;SDS011;12783;48.824;8.662;2023-05-02T14:13:37;16.20;;;9.88;;
24650;SDS011;12783;48.824;8.662;2023-05-02T14:16:04;14.38;;;9.57;;
24650;SDS011;12783;48.824;8.662;2023-05-02T14:18:31;19.85;;;10.55;;
24650;SDS011;12783;48.824;8.662;2023-05-02T14:20:58;15.40;;;9.50;;
24650;SDS011;12783;48.824;8.662;2023-05-02T14:23:25;19.85;;;10.60;;
24650;SDS011;12783;48.824;8.662;2023-05-02T14:25:55;15.35;;;9.60;;
24650;SDS011;12783;48.824;8.662;2023-05-02T14:28:22;15.00;;;9.13;;
24650;SDS011;12783;48.824;8.662;2023-05-02T14:30:49;11.60;;;8.32;;
24650;SDS011;12783;48.824;8.662;2023-05-02T14:33:16;11.90;;;8.07;;
24650;SDS011;12783;48.824;8.662;2023-05-02T14:35:43;14.32;;;9.10;;
24650;SDS011;12783;48.824;8.662;2023-05-02T14:38:11;20.63;;;8.65;;
24650;SDS011;12783;48.824;8.662;2023-05-02T14:40:37;12.63;;;8.07;;
24650;SDS011;12783;48.824;8.662;2023-05-02T14:43:04;10.20;;;7.30;;
24650;SDS011;12783;48.824;8.662;2023-05-02T14:45:33;15.50;;;7.88;;
24650;SDS011;12783;48.824;8.662;2023-05-02T14:48:00;13.45;;;8.65;;
24650;SDS011;12783;48.824;8.662;2023-05-02T14:50:27;15.48;;;8.32;;
24650;SDS011;12783;48.824;8.662;2023-05-02T14:52:54;13.43;;;9.40;;
24650;SDS011;12783;48.824;8.662;2023-05-02T14:55:21;16.63;;;8.90;;
24650;SDS011;12783;48.824;8.662;2023-05-02T14:57:48;12.75;;;5.95;;
24650;SDS011;12783;48.824;8.662;2023-05-02T15:00:15;7.72;;;4.53;;
24650;SDS011;12783;48.824;8.662;2023-05-02T15:02:42;7.57;;;4.55;;
24650;SDS011;12783;48.824;8.662;2023-05-02T15:05:09;8.65;;;5.43;;
24650;SDS011;12783;48.824;8.662;2023-05-02T15:07:38;9.90;;;5.25;;
24650;SDS011;12783;48.824;8.662;2023-05-02T15:10:05;9.80;;;5.88;;
24650;SDS011;12783;48.824;8.662;2023-05-02T15:12:32;8.23;;;5.55;;
24650;SDS011;12783;48.824;8.662;2023-05-02T15:14:59;9.48;;;5.82;;